sensor_id;sensor_type;location;lat;lon;timestamp;temperature;humidity
54168;DHT22;40072;50.958;3.592;2023-02-20T00:02:14;6.60;99.90
54168;DHT22;40072;50.958;3.592;2023-02-20T00:04:40;6.70;99.90
54168;DHT22;40072;50.958;3.592;2023-02-20T00:07:06;6.90;99.90
54168;DHT22;40072;50.958;3.592;2023-02-20T00:09:32;6.90;99.90
54168;DHT22;40072;50.958;3.592;2023-02-20T00:11:57;6.90;99.90
54168;DHT22;40072;50.958;3.592;2023-02-20T00:14:23;7.00;99.90
54168;DHT22;40072;50.958;3.592;2023-02-20T00:16:49;7.00;99.90
54168;DHT22;40072;50.958;3.592;2023-02-20T00:19:14;6.90;99.90
54168;DHT22;40072;50.958;3.592;2023-02-20T00:21:47;7.00;99.90
54168;DHT22;40072;50.958;3.592;2023-02-20T00:24:15;7.00;99.90
54168;DHT22;40072;50.958;3.592;2023-02-20T00:26:51;7.10;99.90
54168;DHT22;40072;50.958;3.592;2023-02-20T00:29:19;7.00;99.90
54168;DHT22;40072;50.958;3.592;2023-02-20T00:31:52;7.00;99.90
54168;DHT22;40072;50.958;3.592;2023-02-20T00:34:18;7.00;99.90
54168;DHT22;40072;50.958;3.592;2023-02-20T00:36:44;6.90;99.90
54168;DHT22;40072;50.958;3.592;2023-02-20T00:39:10;6.90;99.90
54168;DHT22;40072;50.958;3.592;2023-02-20T00:41:36;6.90;99.90
54168;DHT22;40072;50.958;3.592;2023-02-20T00:44:01;6.80;99.90
54168;DHT22;40072;50.958;3.592;2023-02-20T00:46:27;6.80;99.90
54168;DHT22;40072;50.958;3.592;2023-02-20T00:48:53;6.90;99.90
54168;DHT22;40072;50.958;3.592;2023-02-20T00:51:18;6.90;99.90
54168;DHT22;40072;50.958;3.592;2023-02-20T00:53:44;6.90;99.90
54168;DHT22;40072;50.958;3.592;2023-02-20T00:56:10;6.90;99.90
54168;DHT22;40072;50.958;3.592;2023-02-20T00:58:35;7.00;99.90
54168;DHT22;40072;50.958;3.592;2023-02-20T01:01:01;7.00;99.90
54168;DHT22;40072;50.958;3.592;2023-02-20T01:03:27;7.10;99.90
54168;DHT22;40072;50.958;3.592;2023-02-20T01:05:52;7.20;99.90
54168;DHT22;40072;50.958;3.592;2023-02-20T01:08:18;7.20;99.90
54168;DHT22;40072;50.958;3.592;2023-02-20T01:10:43;7.20;99.90
54168;DHT22;40072;50.958;3.592;2023-02-20T01:13:09;7.20;99.90
54168;DHT22;40072;50.958;3.592;2023-02-20T01:15:35;7.30;99.90
54168;DHT22;40072;50.958;3.592;2023-02-20T01:18:00;7.30;99.90
54168;DHT22;40072;50.958;3.592;2023-02-20T01:20:26;7.30;99.90
54168;DHT22;40072;50.958;3.592;2023-02-20T01:22:52;7.40;99.90
54168;DHT22;40072;50.958;3.592;2023-02-20T01:25:17;7.40;99.90
54168;DHT22;40072;50.958;3.592;2023-02-20T01:27:43;7.40;99.90
54168;DHT22;40072;50.958;3.592;2023-02-20T01:30:09;7.40;99.90
54168;DHT22;40072;50.958;3.592;2023-02-20T01:32:35;7.30;99.90
54168;DHT22;40072;50.958;3.592;2023-02-20T01:35:01;7.30;99.90
54168;DHT22;40072;50.958;3.592;2023-02-20T01:37:26;7.30;99.90
54168;DHT22;40072;50.958;3.592;2023-02-20T01:39:52;7.20;99.90
54168;DHT22;40072;50.958;3.592;2023-02-20T01:42:21;7.20;99.90
54168;DHT22;40072;50.958;3.592;2023-02-20T01:44:47;7.20;99.90
54168;DHT22;40072;50.958;3.592;2023-02-20T01:47:18;7.00;99.90
54168;DHT22;40072;50.958;3.592;2023-02-20T01:49:51;7.00;99.90
54168;DHT22;40072;50.958;3.592;2023-02-20T01:52:21;7.00;99.90
54168;DHT22;40072;50.958;3.592;2023-02-20T01:54:54;6.90;99.90
54168;DHT22;40072;50.958;3.592;2023-02-20T01:57:23;6.80;99.90
54168;DHT22;40072;50.958;3.592;2023-02-20T01:59:53;6.80;99.90
54168;DHT22;40072;50.958;3.592;2023-02-20T02:02:21;6.70;99.90
54168;DHT22;40072;50.958;3.592;2023-02-20T02:04:48;6.70;99.90
54168;DHT22;40072;50.958;3.592;2023-02-20T02:07:15;6.70;99.90
54168;DHT22;40072;50.958;3.592;2023-02-20T02:12:13;6.70;99.90
54168;DHT22;40072;50.958;3.592;2023-02-20T02:14:38;6.70;99.90
54168;DHT22;40072;50.958;3.592;2023-02-20T02:20:37;6.60;99.90
54168;DHT22;40072;50.958;3.592;2023-02-20T02:23:25;6.60;99.90
54168;DHT22;40072;50.958;3.592;2023-02-20T02:31:40;6.50;99.90
54168;DHT22;40072;50.958;3.592;2023-02-20T02:39:45;6.50;99.90
54168;DHT22;40072;50.958;3.592;2023-02-20T02:45:10;6.60;99.90
54168;DHT22;40072;50.958;3.592;2023-02-20T02:47:55;6.70;99.90
54168;DHT22;40072;50.958;3.592;2023-02-20T02:52:50;6.80;99.90
54168;DHT22;40072;50.958;3.592;2023-02-20T02:55:27;7.00;99.90
54168;DHT22;40072;50.958;3.592;2023-02-20T02:57:53;7.10;99.90
54168;DHT22;40072;50.958;3.592;2023-02-20T03:03:25;7.20;99.90
54168;DHT22;40072;50.958;3.592;2023-02-20T03:06:35;7.20;99.90
54168;DHT22;40072;50.958;3.592;2023-02-20T03:09:05;7.20;99.90
54168;DHT22;40072;50.958;3.592;2023-02-20T03:11:32;7.30;99.90
54168;DHT22;40072;50.958;3.592;2023-02-20T03:14:04;7.30;99.90
54168;DHT22;40072;50.958;3.592;2023-02-20T03:19:40;7.40;99.90
54168;DHT22;40072;50.958;3.592;2023-02-20T03:22:31;7.40;99.90
54168;DHT22;40072;50.958;3.592;2023-02-20T03:25:07;7.40;99.90
54168;DHT22;40072;50.958;3.592;2023-02-20T03:27:41;7.50;99.90
54168;DHT22;40072;50.958;3.592;2023-02-20T03:30:22;7.50;99.90
54168;DHT22;40072;50.958;3.592;2023-02-20T03:32:55;7.50;99.90
54168;DHT22;40072;50.958;3.592;2023-02-20T03:35:43;7.50;99.90
54168;DHT22;40072;50.958;3.592;2023-02-20T03:38:28;7.50;99.90
54168;DHT22;40072;50.958;3.592;2023-02-20T03:41:14;7.50;99.90
54168;DHT22;40072;50.958;3.592;2023-02-20T03:43:59;7.40;99.90
54168;DHT22;40072;50.958;3.592;2023-02-20T03:46:26;7.40;99.90
54168;DHT22;40072;50.958;3.592;2023-02-20T03:48:59;7.50;99.90
54168;DHT22;40072;50.958;3.592;2023-02-20T03:51:27;7.40;99.90
54168;DHT22;40072;50.958;3.592;2023-02-20T03:53:53;7.40;99.90
54168;DHT22;40072;50.958;3.592;2023-02-20T03:56:26;7.40;99.90
54168;DHT22;40072;50.958;3.592;2023-02-20T03:59:16;7.40;99.90
54168;DHT22;40072;50.958;3.592;2023-02-20T04:01:43;7.50;99.90
54168;DHT22;40072;50.958;3.592;2023-02-20T04:04:15;7.50;99.90
54168;DHT22;40072;50.958;3.592;2023-02-20T04:06:43;7.40;99.90
54168;DHT22;40072;50.958;3.592;2023-02-20T04:09:15;7.40;99.90
54168;DHT22;40072;50.958;3.592;2023-02-20T04:11:56;7.50;99.90
54168;DHT22;40072;50.958;3.592;2023-02-20T04:14:24;7.40;99.90
54168;DHT22;40072;50.958;3.592;2023-02-20T04:16:57;7.40;99.90
54168;DHT22;40072;50.958;3.592;2023-02-20T04:19:24;7.40;99.90
54168;DHT22;40072;50.958;3.592;2023-02-20T04:21:53;7.40;99.90
54168;DHT22;40072;50.958;3.592;2023-02-20T04:24:24;7.40;99.90
54168;DHT22;40072;50.958;3.592;2023-02-20T04:26:52;7.40;99.90
54168;DHT22;40072;50.958;3.592;2023-02-20T04:29:18;7.40;99.90
54168;DHT22;40072;50.958;3.592;2023-02-20T04:31:45;7.50;99.90
54168;DHT22;40072;50.958;3.592;2023-02-20T04:34:11;7.50;99.90
54168;DHT22;40072;50.958;3.592;2023-02-20T04:36:36;7.50;99.90
54168;DHT22;40072;50.958;3.592;2023-02-20T04:39:02;7.40;99.90
54168;DHT22;40072;50.958;3.592;2023-02-20T04:41:28;7.40;99.90
54168;DHT22;40072;50.958;3.592;2023-02-20T04:43:54;7.50;99.90
54168;DHT22;40072;50.958;3.592;2023-02-20T04:46:39;7.50;99.90
54168;DHT22;40072;50.958;3.592;2023-02-20T04:49:05;7.60;99.90
54168;DHT22;40072;50.958;3.592;2023-02-20T04:51:30;7.60;99.90
54168;DHT22;40072;50.958;3.592;2023-02-20T04:53:56;7.50;99.90
54168;DHT22;40072;50.958;3.592;2023-02-20T04:56:22;7.50;99.90
54168;DHT22;40072;50.958;3.592;2023-02-20T04:58:47;7.50;99.90
54168;DHT22;40072;50.958;3.592;2023-02-20T05:01:14;7.50;99.90
54168;DHT22;40072;50.958;3.592;2023-02-20T05:03:40;7.50;99.90
54168;DHT22;40072;50.958;3.592;2023-02-20T05:06:06;7.60;99.90
54168;DHT22;40072;50.958;3.592;2023-02-20T05:08:31;7.60;99.90
54168;DHT22;40072;50.958;3.592;2023-02-20T05:10:57;7.60;99.90
54168;DHT22;40072;50.958;3.592;2023-02-20T05:13:23;7.70;99.90
54168;DHT22;40072;50.958;3.592;2023-02-20T05:15:48;7.60;99.90
54168;DHT22;40072;50.958;3.592;2023-02-20T05:18:23;7.70;99.90
54168;DHT22;40072;50.958;3.592;2023-02-20T05:20:49;7.60;99.90
54168;DHT22;40072;50.958;3.592;2023-02-20T05:23:33;7.60;99.90
54168;DHT22;40072;50.958;3.592;2023-02-20T05:25:59;7.50;99.90
54168;DHT22;40072;50.958;3.592;2023-02-20T05:28:24;7.60;99.90
54168;DHT22;40072;50.958;3.592;2023-02-20T05:30:50;7.60;99.90
54168;DHT22;40072;50.958;3.592;2023-02-20T05:33:16;7.60;99.90
54168;DHT22;40072;50.958;3.592;2023-02-20T05:35:41;7.70;99.90
54168;DHT22;40072;50.958;3.592;2023-02-20T05:38:07;7.70;99.90
54168;DHT22;40072;50.958;3.592;2023-02-20T05:40:33;7.70;99.90
54168;DHT22;40072;50.958;3.592;2023-02-20T05:42:59;7.70;99.90
54168;DHT22;40072;50.958;3.592;2023-02-20T05:45:24;7.70;99.90
54168;DHT22;40072;50.958;3.592;2023-02-20T05:47:50;7.80;99.90
54168;DHT22;40072;50.958;3.592;2023-02-20T05:50:16;7.80;99.90
54168;DHT22;40072;50.958;3.592;2023-02-20T05:52:41;7.70;99.90
54168;DHT22;40072;50.958;3.592;2023-02-20T05:55:08;7.70;99.90
54168;DHT22;40072;50.958;3.592;2023-02-20T05:57:33;7.70;99.90
54168;DHT22;40072;50.958;3.592;2023-02-20T05:59:59;7.70;99.90
54168;DHT22;40072;50.958;3.592;2023-02-20T06:02:24;7.70;99.90
54168;DHT22;40072;50.958;3.592;2023-02-20T06:04:50;7.80;99.90
54168;DHT22;40072;50.958;3.592;2023-02-20T06:07:16;7.80;99.90
54168;DHT22;40072;50.958;3.592;2023-02-20T06:09:42;7.80;99.90
54168;DHT22;40072;50.958;3.592;2023-02-20T06:12:08;7.80;99.90
54168;DHT22;40072;50.958;3.592;2023-02-20T06:14:34;7.80;99.90
54168;DHT22;40072;50.958;3.592;2023-02-20T06:17:00;7.80;99.90
54168;DHT22;40072;50.958;3.592;2023-02-20T06:19:26;7.80;99.90
54168;DHT22;40072;50.958;3.592;2023-02-20T06:21:52;7.90;99.90
54168;DHT22;40072;50.958;3.592;2023-02-20T06:24:19;7.80;99.90
54168;DHT22;40072;50.958;3.592;2023-02-20T06:26:45;7.80;99.90
54168;DHT22;40072;50.958;3.592;2023-02-20T06:29:12;7.80;99.90
54168;DHT22;40072;50.958;3.592;2023-02-20T06:31:38;7.80;99.90
54168;DHT22;40072;50.958;3.592;2023-02-20T06:34:06;7.80;99.90
54168;DHT22;40072;50.958;3.592;2023-02-20T06:36:35;7.80;99.90
54168;DHT22;40072;50.958;3.592;2023-02-20T06:39:02;7.80;99.90
54168;DHT22;40072;50.958;3.592;2023-02-20T06:41:28;7.80;99.90
54168;DHT22;40072;50.958;3.592;2023-02-20T06:43:54;7.80;99.90
54168;DHT22;40072;50.958;3.592;2023-02-20T06:46:20;7.80;99.90
54168;DHT22;40072;50.958;3.592;2023-02-20T06:48:55;7.80;99.90
54168;DHT22;40072;50.958;3.592;2023-02-20T06:51:24;7.90;99.90
54168;DHT22;40072;50.958;3.592;2023-02-20T06:53:49;7.80;99.90
54168;DHT22;40072;50.958;3.592;2023-02-20T06:56:21;7.80;99.90
54168;DHT22;40072;50.958;3.592;2023-02-20T06:58:48;7.80;99.90
54168;DHT22;40072;50.958;3.592;2023-02-20T07:01:15;7.90;99.90
54168;DHT22;40072;50.958;3.592;2023-02-20T07:03:41;7.90;99.90
54168;DHT22;40072;50.958;3.592;2023-02-20T07:06:06;7.90;99.90
54168;DHT22;40072;50.958;3.592;2023-02-20T07:08:32;7.90;99.90
54168;DHT22;40072;50.958;3.592;2023-02-20T07:10:58;7.90;99.90
54168;DHT22;40072;50.958;3.592;2023-02-20T07:13:23;7.90;99.90
54168;DHT22;40072;50.958;3.592;2023-02-20T07:15:49;7.90;99.90
54168;DHT22;40072;50.958;3.592;2023-02-20T07:18:15;7.90;99.90
54168;DHT22;40072;50.958;3.592;2023-02-20T07:20:42;7.90;99.90
54168;DHT22;40072;50.958;3.592;2023-02-20T07:23:08;8.00;99.90
54168;DHT22;40072;50.958;3.592;2023-02-20T07:25:34;8.00;99.90
54168;DHT22;40072;50.958;3.592;2023-02-20T07:28:00;8.10;99.90
54168;DHT22;40072;50.958;3.592;2023-02-20T07:30:26;8.00;99.90
54168;DHT22;40072;50.958;3.592;2023-02-20T07:32:51;8.10;99.90
54168;DHT22;40072;50.958;3.592;2023-02-20T07:35:17;8.10;99.90
54168;DHT22;40072;50.958;3.592;2023-02-20T07:37:42;8.10;99.90
54168;DHT22;40072;50.958;3.592;2023-02-20T07:40:09;8.10;99.90
54168;DHT22;40072;50.958;3.592;2023-02-20T07:42:34;8.10;99.90
54168;DHT22;40072;50.958;3.592;2023-02-20T07:45:00;8.20;99.90
54168;DHT22;40072;50.958;3.592;2023-02-20T07:47:26;8.20;99.90
54168;DHT22;40072;50.958;3.592;2023-02-20T07:49:51;8.20;99.90
54168;DHT22;40072;50.958;3.592;2023-02-20T07:52:17;8.20;99.90
54168;DHT22;40072;50.958;3.592;2023-02-20T07:54:42;8.20;99.90
54168;DHT22;40072;50.958;3.592;2023-02-20T07:57:08;8.20;99.90
54168;DHT22;40072;50.958;3.592;2023-02-20T07:59:34;8.20;99.90
54168;DHT22;40072;50.958;3.592;2023-02-20T08:01:59;8.20;99.90
54168;DHT22;40072;50.958;3.592;2023-02-20T08:04:25;8.30;99.90
54168;DHT22;40072;50.958;3.592;2023-02-20T08:06:52;8.30;99.90
54168;DHT22;40072;50.958;3.592;2023-02-20T08:09:18;8.30;99.90
54168;DHT22;40072;50.958;3.592;2023-02-20T08:11:43;8.40;99.90
54168;DHT22;40072;50.958;3.592;2023-02-20T08:14:09;8.30;99.90
54168;DHT22;40072;50.958;3.592;2023-02-20T08:16:37;8.40;99.90
54168;DHT22;40072;50.958;3.592;2023-02-20T08:19:02;8.50;99.90
54168;DHT22;40072;50.958;3.592;2023-02-20T08:21:28;8.50;99.90
54168;DHT22;40072;50.958;3.592;2023-02-20T08:23:54;8.40;99.90
54168;DHT22;40072;50.958;3.592;2023-02-20T08:26:20;8.50;99.90
54168;DHT22;40072;50.958;3.592;2023-02-20T08:28:47;8.50;99.90
54168;DHT22;40072;50.958;3.592;2023-02-20T08:31:13;8.50;99.90
54168;DHT22;40072;50.958;3.592;2023-02-20T08:33:38;8.50;99.90
54168;DHT22;40072;50.958;3.592;2023-02-20T08:36:04;8.50;99.90
54168;DHT22;40072;50.958;3.592;2023-02-20T08:38:35;8.50;99.90
54168;DHT22;40072;50.958;3.592;2023-02-20T08:41:06;8.50;99.90
54168;DHT22;40072;50.958;3.592;2023-02-20T08:43:37;8.50;99.90
54168;DHT22;40072;50.958;3.592;2023-02-20T08:46:04;8.50;99.90
54168;DHT22;40072;50.958;3.592;2023-02-20T08:48:30;8.50;99.90
54168;DHT22;40072;50.958;3.592;2023-02-20T08:50:56;8.50;99.90
54168;DHT22;40072;50.958;3.592;2023-02-20T08:53:22;8.50;99.90
54168;DHT22;40072;50.958;3.592;2023-02-20T08:55:48;8.50;99.90
54168;DHT22;40072;50.958;3.592;2023-02-20T08:58:18;8.60;99.90
54168;DHT22;40072;50.958;3.592;2023-02-20T09:00:44;8.60;99.90
54168;DHT22;40072;50.958;3.592;2023-02-20T09:03:10;8.70;99.90
54168;DHT22;40072;50.958;3.592;2023-02-20T09:05:36;8.60;99.90
54168;DHT22;40072;50.958;3.592;2023-02-20T09:08:02;8.60;99.90
54168;DHT22;40072;50.958;3.592;2023-02-20T09:10:28;8.70;99.90
54168;DHT22;40072;50.958;3.592;2023-02-20T09:12:53;8.70;99.90
54168;DHT22;40072;50.958;3.592;2023-02-20T09:15:19;8.80;99.90
54168;DHT22;40072;50.958;3.592;2023-02-20T09:17:48;8.80;99.90
54168;DHT22;40072;50.958;3.592;2023-02-20T09:20:15;8.80;99.90
54168;DHT22;40072;50.958;3.592;2023-02-20T09:22:41;8.80;99.90
54168;DHT22;40072;50.958;3.592;2023-02-20T09:25:09;8.80;99.90
54168;DHT22;40072;50.958;3.592;2023-02-20T09:27:35;8.90;99.90
54168;DHT22;40072;50.958;3.592;2023-02-20T09:30:01;8.90;99.90
54168;DHT22;40072;50.958;3.592;2023-02-20T09:32:27;8.80;99.90
54168;DHT22;40072;50.958;3.592;2023-02-20T09:34:53;8.80;99.90
54168;DHT22;40072;50.958;3.592;2023-02-20T09:37:19;8.90;99.90
54168;DHT22;40072;50.958;3.592;2023-02-20T09:39:44;8.90;99.90
54168;DHT22;40072;50.958;3.592;2023-02-20T09:42:26;9.00;99.90
54168;DHT22;40072;50.958;3.592;2023-02-20T09:45:15;9.00;99.90
54168;DHT22;40072;50.958;3.592;2023-02-20T09:50:41;9.10;99.90
54168;DHT22;40072;50.958;3.592;2023-02-20T09:55:39;9.20;99.90
54168;DHT22;40072;50.958;3.592;2023-02-20T09:58:05;9.30;99.90
54168;DHT22;40072;50.958;3.592;2023-02-20T10:00:34;9.30;99.90
54168;DHT22;40072;50.958;3.592;2023-02-20T10:05:33;9.20;99.90
54168;DHT22;40072;50.958;3.592;2023-02-20T10:08:01;9.10;99.90
54168;DHT22;40072;50.958;3.592;2023-02-20T10:10:29;9.10;99.90
54168;DHT22;40072;50.958;3.592;2023-02-20T10:15:44;9.10;99.90
54168;DHT22;40072;50.958;3.592;2023-02-20T10:23:53;9.20;99.90
54168;DHT22;40072;50.958;3.592;2023-02-20T10:26:27;9.10;99.90
54168;DHT22;40072;50.958;3.592;2023-02-20T10:28:56;9.10;99.90
54168;DHT22;40072;50.958;3.592;2023-02-20T10:31:35;9.20;99.90
54168;DHT22;40072;50.958;3.592;2023-02-20T10:34:09;9.10;99.90
54168;DHT22;40072;50.958;3.592;2023-02-20T10:36:40;9.20;99.90
54168;DHT22;40072;50.958;3.592;2023-02-20T10:39:11;9.30;99.90
54168;DHT22;40072;50.958;3.592;2023-02-20T10:47:19;9.30;99.90
54168;DHT22;40072;50.958;3.592;2023-02-20T10:50:03;9.20;99.90
54168;DHT22;40072;50.958;3.592;2023-02-20T10:52:40;9.10;99.90
54168;DHT22;40072;50.958;3.592;2023-02-20T10:55:14;9.10;99.90
54168;DHT22;40072;50.958;3.592;2023-02-20T11:00:41;9.10;99.90
54168;DHT22;40072;50.958;3.592;2023-02-20T11:03:14;9.20;99.90
54168;DHT22;40072;50.958;3.592;2023-02-20T11:05:53;9.30;99.90
54168;DHT22;40072;50.958;3.592;2023-02-20T11:08:21;9.20;99.90
54168;DHT22;40072;50.958;3.592;2023-02-20T11:10:48;9.20;99.90
54168;DHT22;40072;50.958;3.592;2023-02-20T11:13:20;9.30;99.90
54168;DHT22;40072;50.958;3.592;2023-02-20T11:15:49;9.30;99.90
54168;DHT22;40072;50.958;3.592;2023-02-20T11:18:24;9.40;99.90
54168;DHT22;40072;50.958;3.592;2023-02-20T11:20:51;9.30;99.90
54168;DHT22;40072;50.958;3.592;2023-02-20T11:23:40;9.40;99.90
54168;DHT22;40072;50.958;3.592;2023-02-20T11:26:32;9.40;99.90
54168;DHT22;40072;50.958;3.592;2023-02-20T11:29:10;9.30;99.90
54168;DHT22;40072;50.958;3.592;2023-02-20T11:31:37;9.30;99.90
54168;DHT22;40072;50.958;3.592;2023-02-20T11:34:04;9.40;99.90
54168;DHT22;40072;50.958;3.592;2023-02-20T11:36:44;9.60;99.90
54168;DHT22;40072;50.958;3.592;2023-02-20T11:39:24;9.70;99.90
54168;DHT22;40072;50.958;3.592;2023-02-20T11:42:21;9.70;99.90
54168;DHT22;40072;50.958;3.592;2023-02-20T11:45:15;9.70;99.90
54168;DHT22;40072;50.958;3.592;2023-02-20T11:47:42;9.80;99.90
54168;DHT22;40072;50.958;3.592;2023-02-20T11:50:18;9.80;99.90
54168;DHT22;40072;50.958;3.592;2023-02-20T11:53:04;9.80;99.90
54168;DHT22;40072;50.958;3.592;2023-02-20T11:55:32;9.60;99.90
54168;DHT22;40072;50.958;3.592;2023-02-20T11:57:58;9.70;99.90
54168;DHT22;40072;50.958;3.592;2023-02-20T12:00:26;9.70;99.90
54168;DHT22;40072;50.958;3.592;2023-02-20T12:03:13;9.80;99.90
54168;DHT22;40072;50.958;3.592;2023-02-20T12:05:44;9.90;99.90
54168;DHT22;40072;50.958;3.592;2023-02-20T12:10:51;9.80;99.90
54168;DHT22;40072;50.958;3.592;2023-02-20T12:13:18;9.80;99.90
54168;DHT22;40072;50.958;3.592;2023-02-20T12:15:50;9.80;99.90
54168;DHT22;40072;50.958;3.592;2023-02-20T12:21:16;9.80;99.90
54168;DHT22;40072;50.958;3.592;2023-02-20T12:27:17;10.10;99.90
54168;DHT22;40072;50.958;3.592;2023-02-20T12:35:35;10.20;99.90
54168;DHT22;40072;50.958;3.592;2023-02-20T12:43:46;10.30;99.90
54168;DHT22;40072;50.958;3.592;2023-02-20T12:46:23;10.20;99.90
54168;DHT22;40072;50.958;3.592;2023-02-20T13:01:34;10.20;99.90
54168;DHT22;40072;50.958;3.592;2023-02-20T13:04:31;10.20;99.90
54168;DHT22;40072;50.958;3.592;2023-02-20T13:07:20;10.30;99.90
54168;DHT22;40072;50.958;3.592;2023-02-20T13:10:23;10.30;99.90
54168;DHT22;40072;50.958;3.592;2023-02-20T13:12:51;10.40;99.90
54168;DHT22;40072;50.958;3.592;2023-02-20T13:15:45;10.40;99.90
54168;DHT22;40072;50.958;3.592;2023-02-20T13:20:56;10.40;99.90
54168;DHT22;40072;50.958;3.592;2023-02-20T13:25:49;10.40;99.90
54168;DHT22;40072;50.958;3.592;2023-02-20T13:28:38;10.40;99.90
54168;DHT22;40072;50.958;3.592;2023-02-20T13:33:42;10.40;99.90
54168;DHT22;40072;50.958;3.592;2023-02-20T13:44:39;10.30;99.90
54168;DHT22;40072;50.958;3.592;2023-02-20T13:47:29;10.30;99.90
54168;DHT22;40072;50.958;3.592;2023-02-20T13:49:57;10.30;99.90
54168;DHT22;40072;50.958;3.592;2023-02-20T13:52:40;10.30;99.90
54168;DHT22;40072;50.958;3.592;2023-02-20T14:02:45;10.30;99.90
54168;DHT22;40072;50.958;3.592;2023-02-20T14:05:27;10.30;99.90
54168;DHT22;40072;50.958;3.592;2023-02-20T14:07:53;10.30;99.90
54168;DHT22;40072;50.958;3.592;2023-02-20T14:10:34;10.20;99.90
54168;DHT22;40072;50.958;3.592;2023-02-20T14:13:10;10.30;99.90
54168;DHT22;40072;50.958;3.592;2023-02-20T14:15:52;10.30;99.90
54168;DHT22;40072;50.958;3.592;2023-02-20T14:18:33;10.30;99.90
54168;DHT22;40072;50.958;3.592;2023-02-20T14:21:15;10.40;99.90
54168;DHT22;40072;50.958;3.592;2023-02-20T14:23:42;10.30;99.90
54168;DHT22;40072;50.958;3.592;2023-02-20T14:26:21;10.40;99.90
54168;DHT22;40072;50.958;3.592;2023-02-20T14:28:49;10.40;99.90
54168;DHT22;40072;50.958;3.592;2023-02-20T14:31:33;10.30;99.90
54168;DHT22;40072;50.958;3.592;2023-02-20T14:34:15;10.30;99.90
54168;DHT22;40072;50.958;3.592;2023-02-20T14:42:00;10.30;99.90
54168;DHT22;40072;50.958;3.592;2023-02-20T14:44:27;10.40;99.90
54168;DHT22;40072;50.958;3.592;2023-02-20T14:46:57;10.20;99.90
54168;DHT22;40072;50.958;3.592;2023-02-20T14:49:28;10.20;99.90
54168;DHT22;40072;50.958;3.592;2023-02-20T14:52:10;10.30;99.90
54168;DHT22;40072;50.958;3.592;2023-02-20T14:54:38;10.10;99.90
54168;DHT22;40072;50.958;3.592;2023-02-20T14:57:04;10.10;99.90
54168;DHT22;40072;50.958;3.592;2023-02-20T14:59:37;10.00;99.90
54168;DHT22;40072;50.958;3.592;2023-02-20T15:02:20;10.00;99.90
54168;DHT22;40072;50.958;3.592;2023-02-20T15:07:22;10.00;99.90
54168;DHT22;40072;50.958;3.592;2023-02-20T15:09:51;10.00;99.90
54168;DHT22;40072;50.958;3.592;2023-02-20T15:12:31;10.00;99.90
54168;DHT22;40072;50.958;3.592;2023-02-20T15:17:31;10.10;99.90
54168;DHT22;40072;50.958;3.592;2023-02-20T15:19:57;10.20;99.90
54168;DHT22;40072;50.958;3.592;2023-02-20T15:22:35;10.10;99.90
54168;DHT22;40072;50.958;3.592;2023-02-20T15:25:13;10.10;99.90
54168;DHT22;40072;50.958;3.592;2023-02-20T15:27:39;10.10;99.90
54168;DHT22;40072;50.958;3.592;2023-02-20T15:30:25;10.10;99.90
54168;DHT22;40072;50.958;3.592;2023-02-20T15:32:52;10.10;99.90
54168;DHT22;40072;50.958;3.592;2023-02-20T15:35:21;10.10;99.90
54168;DHT22;40072;50.958;3.592;2023-02-20T15:37:49;10.00;99.90
54168;DHT22;40072;50.958;3.592;2023-02-20T15:40:25;10.00;99.90
54168;DHT22;40072;50.958;3.592;2023-02-20T15:42:52;10.00;99.90
54168;DHT22;40072;50.958;3.592;2023-02-20T15:45:23;10.00;99.90
54168;DHT22;40072;50.958;3.592;2023-02-20T15:47:48;10.00;99.90
54168;DHT22;40072;50.958;3.592;2023-02-20T15:50:14;9.90;99.90
54168;DHT22;40072;50.958;3.592;2023-02-20T15:52:40;9.90;99.90
54168;DHT22;40072;50.958;3.592;2023-02-20T15:55:11;9.90;99.90
54168;DHT22;40072;50.958;3.592;2023-02-20T15:57:41;10.00;99.90
54168;DHT22;40072;50.958;3.592;2023-02-20T16:00:10;9.90;99.90
54168;DHT22;40072;50.958;3.592;2023-02-20T16:02:35;9.90;99.90
54168;DHT22;40072;50.958;3.592;2023-02-20T16:05:01;10.00;99.90
54168;DHT22;40072;50.958;3.592;2023-02-20T16:07:27;10.00;99.90
54168;DHT22;40072;50.958;3.592;2023-02-20T16:09:52;9.90;99.90
54168;DHT22;40072;50.958;3.592;2023-02-20T16:12:27;9.90;99.90
54168;DHT22;40072;50.958;3.592;2023-02-20T16:14:53;9.90;99.90
54168;DHT22;40072;50.958;3.592;2023-02-20T16:17:23;9.80;99.90
54168;DHT22;40072;50.958;3.592;2023-02-20T16:19:50;9.80;99.90
54168;DHT22;40072;50.958;3.592;2023-02-20T16:22:16;9.80;99.90
54168;DHT22;40072;50.958;3.592;2023-02-20T16:24:43;9.80;99.90
54168;DHT22;40072;50.958;3.592;2023-02-20T16:27:21;9.80;99.90
54168;DHT22;40072;50.958;3.592;2023-02-20T16:29:48;9.80;99.90
54168;DHT22;40072;50.958;3.592;2023-02-20T16:34:45;9.70;99.90
54168;DHT22;40072;50.958;3.592;2023-02-20T16:37:12;9.60;99.90
54168;DHT22;40072;50.958;3.592;2023-02-20T16:39:38;9.60;99.90
54168;DHT22;40072;50.958;3.592;2023-02-20T16:42:21;9.60;99.90
54168;DHT22;40072;50.958;3.592;2023-02-20T16:44:49;9.50;99.90
54168;DHT22;40072;50.958;3.592;2023-02-20T16:47:23;9.60;99.90
54168;DHT22;40072;50.958;3.592;2023-02-20T16:49:49;9.60;99.90
54168;DHT22;40072;50.958;3.592;2023-02-20T16:52:30;9.60;99.90
54168;DHT22;40072;50.958;3.592;2023-02-20T16:54:57;9.50;99.90
54168;DHT22;40072;50.958;3.592;2023-02-20T16:57:24;9.50;99.90
54168;DHT22;40072;50.958;3.592;2023-02-20T16:59:52;9.50;99.90
54168;DHT22;40072;50.958;3.592;2023-02-20T17:02:28;9.50;99.90
54168;DHT22;40072;50.958;3.592;2023-02-20T17:04:54;9.50;99.90
54168;DHT22;40072;50.958;3.592;2023-02-20T17:07:20;9.40;99.90
54168;DHT22;40072;50.958;3.592;2023-02-20T17:09:46;9.40;99.90
54168;DHT22;40072;50.958;3.592;2023-02-20T17:12:15;9.40;99.90
54168;DHT22;40072;50.958;3.592;2023-02-20T17:14:41;9.40;99.90
54168;DHT22;40072;50.958;3.592;2023-02-20T17:17:07;9.50;99.90
54168;DHT22;40072;50.958;3.592;2023-02-20T17:19:36;9.40;99.90
54168;DHT22;40072;50.958;3.592;2023-02-20T17:22:02;9.50;99.90
54168;DHT22;40072;50.958;3.592;2023-02-20T17:24:28;9.50;99.90
54168;DHT22;40072;50.958;3.592;2023-02-20T17:26:54;9.40;99.90
54168;DHT22;40072;50.958;3.592;2023-02-20T17:29:20;9.50;99.90
54168;DHT22;40072;50.958;3.592;2023-02-20T17:31:46;9.40;99.90
54168;DHT22;40072;50.958;3.592;2023-02-20T17:34:11;9.40;99.90
54168;DHT22;40072;50.958;3.592;2023-02-20T17:36:37;9.40;99.90
54168;DHT22;40072;50.958;3.592;2023-02-20T17:39:03;9.40;99.90
54168;DHT22;40072;50.958;3.592;2023-02-20T17:41:28;9.50;99.90
54168;DHT22;40072;50.958;3.592;2023-02-20T17:43:54;9.40;99.90
54168;DHT22;40072;50.958;3.592;2023-02-20T17:46:20;9.30;99.90
54168;DHT22;40072;50.958;3.592;2023-02-20T17:48:45;9.30;99.90
54168;DHT22;40072;50.958;3.592;2023-02-20T17:51:17;9.30;99.90
54168;DHT22;40072;50.958;3.592;2023-02-20T17:53:44;9.40;99.90
54168;DHT22;40072;50.958;3.592;2023-02-20T17:56:12;9.30;99.90
54168;DHT22;40072;50.958;3.592;2023-02-20T17:58:38;9.20;99.90
54168;DHT22;40072;50.958;3.592;2023-02-20T18:01:04;9.20;99.90
54168;DHT22;40072;50.958;3.592;2023-02-20T18:03:30;9.20;99.90
54168;DHT22;40072;50.958;3.592;2023-02-20T18:05:55;9.30;99.90